SVA379 OEJN-GMMN
Flight info
| Callsign | SVA379 |
|---|---|
| Flight time | N/A |
| Altitude | 40000 |
| Route | BOMOX3V BOMOX M686 OTEMO T55 KUNKI P751 METRU UP868 ARLOS DCT OMENI UL874 DIMAO UZ888 ORSUP UA411 FES UR975 SADIC SADIC1A |
| Aircraft | B77W/H-SDE1E2E3FGHIJ2J3J4J5M1RWXY/LB1D1 |
Departure
| Time | 2026-05-07 11:00 |
|---|---|
| Airport | King Abdulaziz International Airport (OEJN) |
Arrival
| Time | N/A |
|---|---|
| Airport | Mohammed V International Airport (GMMN) |
| Time | Latitude | Longitude | Altitude | Speed | Heading |
|---|---|---|---|---|---|
| 2026-05-07 10:41 | 21.66636 | 39.17054 | 37 ft | 0 kts | 70° |
| 2026-05-07 10:43 | 21.66636 | 39.17053 | 37 ft | 0 kts | 70° |
| 2026-05-07 10:50 | 21.66631 | 39.17038 | 36 ft | 2 kts | 70° |
| 2026-05-07 10:50 | 21.66626 | 39.17021 | 34 ft | 2 kts | 70° |
| 2026-05-07 10:50 | 21.66620 | 39.17005 | 34 ft | 2 kts | 70° |
| 2026-05-07 10:51 | 21.66615 | 39.16988 | 34 ft | 2 kts | 70° |
| 2026-05-07 10:51 | 21.66609 | 39.16972 | 36 ft | 2 kts | 70° |
| 2026-05-07 10:51 | 21.66609 | 39.16955 | 35 ft | 2 kts | 130° |
| 2026-05-07 10:51 | 21.66622 | 39.16944 | 33 ft | 2 kts | 155° |
| 2026-05-07 10:52 | 21.66625 | 39.16943 | 35 ft | 0 kts | 155° |
| 2026-05-07 10:54 | 21.66623 | 39.16943 | 37 ft | 1 kts | 155° |
| 2026-05-07 10:55 | 21.66598 | 39.16955 | 36 ft | 7 kts | 157° |
| 2026-05-07 10:55 | 21.66538 | 39.16981 | 37 ft | 12 kts | 159° |
| 2026-05-07 10:55 | 21.66449 | 39.16997 | 37 ft | 13 kts | 200° |
| 2026-05-07 10:55 | 21.66408 | 39.16936 | 37 ft | 12 kts | 245° |
| 2026-05-07 10:56 | 21.66371 | 39.16837 | 37 ft | 16 kts | 248° |
| 2026-05-07 10:56 | 21.66327 | 39.16710 | 38 ft | 20 kts | 250° |
| 2026-05-07 10:56 | 21.66287 | 39.16646 | 38 ft | 11 kts | 207° |
| 2026-05-07 10:56 | 21.66234 | 39.16653 | 38 ft | 1 kts | 146° |
| 2026-05-07 10:57 | 21.66221 | 39.16653 | 38 ft | 3 kts | 187° |
| 2026-05-07 10:57 | 21.66192 | 39.16632 | 38 ft | 7 kts | 230° |
| 2026-05-07 10:57 | 21.66162 | 39.16571 | 37 ft | 12 kts | 245° |
| 2026-05-07 10:57 | 21.66152 | 39.16493 | 36 ft | 10 kts | 300° |
| 2026-05-07 10:58 | 21.66215 | 39.16450 | 37 ft | 10 kts | 339° |
| 2026-05-07 10:58 | 21.66218 | 39.16449 | 37 ft | 0 kts | 339° |
| 2026-05-07 10:58 | 21.66221 | 39.16448 | 37 ft | 0 kts | 339° |
| 2026-05-07 10:58 | 21.66223 | 39.16447 | 37 ft | 0 kts | 339° |
| 2026-05-07 10:59 | 21.66225 | 39.16446 | 37 ft | 0 kts | 339° |
| 2026-05-07 10:59 | 21.66270 | 39.16428 | 37 ft | 21 kts | 339° |
| 2026-05-07 10:59 | 21.66622 | 39.16290 | 41 ft | 94 kts | 340° |
| 2026-05-07 10:59 | 21.67483 | 39.15944 | 49 ft | 164 kts | 338° |
| 2026-05-07 11:00 | 21.68233 | 39.15639 | 305 ft | 181 kts | 338° |
| 2026-05-07 11:00 | 21.69505 | 39.15137 | 741 ft | 206 kts | 338° |
| 2026-05-07 11:00 | 21.70858 | 39.14525 | 1473 ft | 214 kts | 337° |
| 2026-05-07 11:00 | 21.72266 | 39.13964 | 2301 ft | 222 kts | 340° |
| 2026-05-07 11:01 | 21.74338 | 39.13182 | 2935 ft | 254 kts | 340° |
| 2026-05-07 11:01 | 21.75497 | 39.12741 | 3372 ft | 264 kts | 340° |
| 2026-05-07 11:01 | 21.77214 | 39.12079 | 4382 ft | 264 kts | 339° |
| 2026-05-07 11:01 | 21.78927 | 39.11414 | 5352 ft | 264 kts | 338° |
| 2026-05-07 11:02 | 21.80683 | 39.10727 | 6185 ft | 268 kts | 338° |
| 2026-05-07 11:02 | 21.82440 | 39.10041 | 7017 ft | 271 kts | 338° |
| 2026-05-07 11:02 | 21.84233 | 39.09335 | 7770 ft | 277 kts | 338° |
| 2026-05-07 11:02 | 21.86060 | 39.08614 | 8528 ft | 282 kts | 337° |
| 2026-05-07 11:03 | 21.87917 | 39.07881 | 9284 ft | 286 kts | 337° |
| 2026-05-07 11:03 | 21.89807 | 39.07131 | 10005 ft | 291 kts | 336° |
| 2026-05-07 11:03 | 21.91694 | 39.06275 | 10627 ft | 297 kts | 332° |
| 2026-05-07 11:03 | 21.93598 | 39.05344 | 11292 ft | 303 kts | 332° |
| 2026-05-07 11:04 | 21.95549 | 39.04390 | 11818 ft | 314 kts | 332° |
| 2026-05-07 11:04 | 21.97603 | 39.03398 | 12131 ft | 332 kts | 333° |
| 2026-05-07 11:04 | 21.99750 | 39.02368 | 12417 ft | 351 kts | 333° |
| 2026-05-07 11:04 | 22.02045 | 39.01269 | 12712 ft | 369 kts | 333° |
| 2026-05-07 11:05 | 22.04443 | 39.00122 | 13001 ft | 385 kts | 333° |
| 2026-05-07 11:05 | 22.06951 | 38.98923 | 13296 ft | 401 kts | 333° |
| 2026-05-07 11:05 | 22.09543 | 38.97684 | 13692 ft | 412 kts | 333° |
| 2026-05-07 11:05 | 22.12189 | 38.96420 | 14155 ft | 419 kts | 333° |
| 2026-05-07 11:06 | 22.14841 | 38.95151 | 14648 ft | 424 kts | 333° |
| 2026-05-07 11:06 | 22.17591 | 38.93834 | 15152 ft | 429 kts | 333° |
| 2026-05-07 11:06 | 22.20335 | 38.92523 | 15661 ft | 433 kts | 332° |
| 2026-05-07 11:06 | 22.23066 | 38.91217 | 16158 ft | 434 kts | 332° |
| 2026-05-07 11:07 | 22.25630 | 38.89562 | 16496 ft | 429 kts | 315° |
| 2026-05-07 11:07 | 22.27557 | 38.87142 | 16894 ft | 423 kts | 297° |
| 2026-05-07 11:07 | 22.28977 | 38.84383 | 17245 ft | 423 kts | 295° |
| 2026-05-07 11:07 | 22.30410 | 38.81577 | 17661 ft | 428 kts | 295° |
| 2026-05-07 11:08 | 22.31873 | 38.78768 | 18134 ft | 430 kts | 295° |
| 2026-05-07 11:08 | 22.33364 | 38.75948 | 18538 ft | 432 kts | 296° |
| 2026-05-07 11:08 | 22.34845 | 38.73161 | 18970 ft | 433 kts | 296° |
| 2026-05-07 11:08 | 22.36345 | 38.70340 | 19393 ft | 433 kts | 296° |
| 2026-05-07 11:09 | 22.37848 | 38.67508 | 19788 ft | 434 kts | 296° |
| 2026-05-07 11:09 | 22.39353 | 38.64669 | 20159 ft | 436 kts | 296° |
| 2026-05-07 11:09 | 22.40863 | 38.61817 | 20492 ft | 437 kts | 296° |
| 2026-05-07 11:09 | 22.42380 | 38.58950 | 20827 ft | 439 kts | 296° |
| 2026-05-07 11:10 | 22.43902 | 38.56074 | 21166 ft | 440 kts | 296° |
| 2026-05-07 11:10 | 22.45426 | 38.53193 | 21498 ft | 441 kts | 296° |
| 2026-05-07 11:10 | 22.46947 | 38.50315 | 21805 ft | 442 kts | 296° |
| 2026-05-07 11:10 | 22.48453 | 38.47464 | 22114 ft | 443 kts | 296° |
| 2026-05-07 11:11 | 22.50161 | 38.44680 | 22413 ft | 446 kts | 307° |
| 2026-05-07 11:11 | 22.52476 | 38.42438 | 22690 ft | 448 kts | 318° |
| 2026-05-07 11:11 | 22.54954 | 38.40388 | 23010 ft | 449 kts | 318° |
| 2026-05-07 11:11 | 22.57432 | 38.38326 | 23316 ft | 449 kts | 317° |
| 2026-05-07 11:12 | 22.59901 | 38.36247 | 23591 ft | 449 kts | 317° |
| 2026-05-07 11:12 | 22.62358 | 38.34154 | 23857 ft | 449 kts | 317° |
| 2026-05-07 11:12 | 22.63984 | 38.32759 | 24013 ft | 449 kts | 316° |
| 2026-05-07 11:12 | 22.67252 | 38.29939 | 24343 ft | 449 kts | 316° |
| 2026-05-07 11:13 | 22.69693 | 38.27825 | 24590 ft | 449 kts | 316° |
| 2026-05-07 11:13 | 22.72107 | 38.25732 | 24845 ft | 448 kts | 316° |
| 2026-05-07 11:13 | 22.74545 | 38.23616 | 25099 ft | 448 kts | 316° |
| 2026-05-07 11:13 | 22.76974 | 38.21508 | 25356 ft | 447 kts | 316° |
| 2026-05-07 11:14 | 22.79403 | 38.19400 | 25615 ft | 447 kts | 316° |
| 2026-05-07 11:14 | 22.81826 | 38.17296 | 25902 ft | 445 kts | 315° |
| 2026-05-07 11:14 | 22.84243 | 38.15197 | 26162 ft | 444 kts | 315° |
| 2026-05-07 11:14 | 22.86653 | 38.13103 | 26438 ft | 443 kts | 315° |
| 2026-05-07 11:15 | 22.89058 | 38.11013 | 26699 ft | 442 kts | 315° |
| 2026-05-07 11:15 | 22.91456 | 38.08927 | 26972 ft | 441 kts | 315° |
| 2026-05-07 11:15 | 22.93842 | 38.06851 | 27253 ft | 439 kts | 315° |
| 2026-05-07 11:15 | 22.96222 | 38.04779 | 27527 ft | 437 kts | 314° |
| 2026-05-07 11:16 | 22.98592 | 38.02715 | 27815 ft | 435 kts | 314° |
| 2026-05-07 11:16 | 23.00951 | 38.00660 | 28094 ft | 434 kts | 314° |
| 2026-05-07 11:16 | 23.03296 | 37.98616 | 28371 ft | 432 kts | 314° |
| 2026-05-07 11:16 | 23.05599 | 37.96608 | 28779 ft | 424 kts | 314° |
| 2026-05-07 11:17 | 23.07894 | 37.94611 | 29201 ft | 421 kts | 313° |
| 2026-05-07 11:17 | 23.10172 | 37.92622 | 29511 ft | 418 kts | 313° |
| 2026-05-07 11:17 | 23.12431 | 37.90647 | 29840 ft | 415 kts | 313° |
| 2026-05-07 11:17 | 23.14685 | 37.88674 | 29876 ft | 419 kts | 313° |
| 2026-05-07 11:18 | 23.19243 | 37.84677 | 29901 ft | 427 kts | 313° |
| 2026-05-07 11:18 | 23.23918 | 37.80582 | 29899 ft | 435 kts | 313° |
| 2026-05-07 11:19 | 23.28674 | 37.76418 | 29896 ft | 442 kts | 313° |
| 2026-05-07 11:19 | 23.33477 | 37.72209 | 29894 ft | 448 kts | 313° |
| 2026-05-07 11:20 | 23.38368 | 37.67915 | 29893 ft | 454 kts | 313° |
| 2026-05-07 11:20 | 23.43313 | 37.63568 | 29999 ft | 456 kts | 313° |
| 2026-05-07 11:21 | 23.45772 | 37.61410 | 30262 ft | 452 kts | 313° |
| 2026-05-07 11:21 | 23.48185 | 37.59291 | 30489 ft | 448 kts | 313° |
| 2026-05-07 11:21 | 23.50604 | 37.57166 | 30878 ft | 440 kts | 313° |
| 2026-05-07 11:21 | 23.52950 | 37.55111 | 31568 ft | 424 kts | 312° |
| 2026-05-07 11:22 | 23.55189 | 37.53151 | 32220 ft | 410 kts | 311° |
| 2026-05-07 11:22 | 23.57376 | 37.51230 | 32761 ft | 398 kts | 311° |
| 2026-05-07 11:22 | 23.59525 | 37.49332 | 32881 ft | 399 kts | 311° |
| 2026-05-07 11:22 | 23.61683 | 37.47414 | 32895 ft | 401 kts | 311° |
| 2026-05-07 11:23 | 23.66037 | 37.43545 | 32898 ft | 405 kts | 311° |
| 2026-05-07 11:23 | 23.70448 | 37.39635 | 32900 ft | 410 kts | 311° |
| 2026-05-07 11:24 | 23.74882 | 37.35710 | 32897 ft | 415 kts | 311° |
| 2026-05-07 11:24 | 23.79399 | 37.31711 | 32899 ft | 419 kts | 311° |
| 2026-05-07 11:25 | 23.83962 | 37.27666 | 32901 ft | 424 kts | 311° |
| 2026-05-07 11:25 | 23.88543 | 37.23602 | 32899 ft | 428 kts | 311° |
| 2026-05-07 11:26 | 23.93195 | 37.19472 | 32899 ft | 432 kts | 311° |
| 2026-05-07 11:26 | 23.97883 | 37.15305 | 32903 ft | 435 kts | 311° |
| 2026-05-07 11:27 | 24.02581 | 37.11126 | 32898 ft | 439 kts | 311° |
| 2026-05-07 11:27 | 24.07309 | 37.06921 | 33259 ft | 432 kts | 311° |
| 2026-05-07 11:28 | 24.09593 | 37.04897 | 33770 ft | 421 kts | 311° |
| 2026-05-07 11:28 | 24.11844 | 37.02901 | 34191 ft | 410 kts | 310° |
| 2026-05-07 11:28 | 24.14034 | 37.00956 | 34620 ft | 399 kts | 310° |
| 2026-05-07 11:28 | 24.16172 | 36.99052 | 34905 ft | 392 kts | 310° |
| 2026-05-07 11:29 | 24.20408 | 36.95250 | 34903 ft | 394 kts | 309° |
| 2026-05-07 11:29 | 24.24659 | 36.91435 | 34909 ft | 395 kts | 310° |
| 2026-05-07 11:30 | 24.28936 | 36.87604 | 34909 ft | 397 kts | 310° |
| 2026-05-07 11:30 | 24.33198 | 36.83785 | 34911 ft | 398 kts | 310° |
| 2026-05-07 11:31 | 24.37483 | 36.79945 | 34913 ft | 400 kts | 310° |
| 2026-05-07 11:31 | 24.41801 | 36.76071 | 34915 ft | 401 kts | 310° |
| 2026-05-07 11:32 | 24.48311 | 36.70223 | 34917 ft | 404 kts | 310° |
| 2026-05-07 11:33 | 24.52650 | 36.66321 | 34894 ft | 406 kts | 310° |
| 2026-05-07 11:33 | 24.57032 | 36.62377 | 34905 ft | 407 kts | 310° |
| 2026-05-07 11:34 | 24.61271 | 36.58351 | 34900 ft | 393 kts | 298° |
| 2026-05-07 11:34 | 24.62691 | 36.55887 | 34915 ft | 374 kts | 284° |
| 2026-05-07 11:34 | 24.63521 | 36.53224 | 34919 ft | 364 kts | 278° |
| 2026-05-07 11:35 | 24.65081 | 36.47873 | 34922 ft | 369 kts | 281° |
| 2026-05-07 11:35 | 24.66761 | 36.42554 | 34923 ft | 371 kts | 281° |
| 2026-05-07 11:36 | 24.68445 | 36.37174 | 34922 ft | 372 kts | 281° |
| 2026-05-07 11:36 | 24.70122 | 36.31769 | 34920 ft | 374 kts | 281° |
| 2026-05-07 11:37 | 24.71793 | 36.26371 | 34919 ft | 375 kts | 281° |
| 2026-05-07 11:37 | 24.73482 | 36.20903 | 34924 ft | 377 kts | 281° |
| 2026-05-07 11:38 | 24.75155 | 36.15471 | 34922 ft | 378 kts | 281° |
| 2026-05-07 11:38 | 24.76847 | 36.09971 | 34925 ft | 380 kts | 281° |
| 2026-05-07 11:39 | 24.78543 | 36.04450 | 34924 ft | 381 kts | 281° |
| 2026-05-07 11:39 | 24.80239 | 35.98922 | 34920 ft | 383 kts | 281° |
| 2026-05-07 11:40 | 24.81950 | 35.93339 | 34923 ft | 384 kts | 281° |
| 2026-05-07 11:40 | 24.83660 | 35.87748 | 34926 ft | 386 kts | 281° |
| 2026-05-07 11:41 | 24.85366 | 35.82165 | 34927 ft | 387 kts | 281° |
| 2026-05-07 11:41 | 24.87085 | 35.76528 | 34927 ft | 388 kts | 281° |
| 2026-05-07 11:42 | 24.88797 | 35.70906 | 34927 ft | 390 kts | 281° |
| 2026-05-07 11:42 | 24.90526 | 35.65219 | 34927 ft | 391 kts | 281° |
| 2026-05-07 11:43 | 24.92248 | 35.59546 | 34923 ft | 392 kts | 281° |
| 2026-05-07 11:43 | 24.93982 | 35.53827 | 34921 ft | 394 kts | 281° |
| 2026-05-07 11:44 | 24.95720 | 35.48085 | 34926 ft | 395 kts | 281° |
| 2026-05-07 11:44 | 24.97449 | 35.42363 | 34925 ft | 396 kts | 281° |
| 2026-05-07 11:45 | 24.99193 | 35.36583 | 34926 ft | 397 kts | 281° |
| 2026-05-07 11:45 | 25.00926 | 35.30831 | 34925 ft | 398 kts | 281° |
| 2026-05-07 11:46 | 25.02674 | 35.25020 | 34922 ft | 399 kts | 281° |
| 2026-05-07 11:46 | 25.04131 | 35.20169 | 34927 ft | 400 kts | 281° |
| 2026-05-07 11:47 | 25.06010 | 35.14373 | 34917 ft | 407 kts | 290° |
| 2026-05-07 11:47 | 25.07628 | 35.11741 | 34923 ft | 421 kts | 303° |
| 2026-05-07 11:47 | 25.09774 | 35.09465 | 34922 ft | 430 kts | 311° |
| 2026-05-07 11:48 | 25.14110 | 35.05049 | 34932 ft | 426 kts | 307° |
| 2026-05-07 11:48 | 25.18313 | 35.00425 | 34934 ft | 426 kts | 306° |
| 2026-05-07 11:49 | 25.22520 | 34.95795 | 34938 ft | 428 kts | 307° |
| 2026-05-07 11:49 | 25.26768 | 34.91156 | 34928 ft | 429 kts | 307° |
| 2026-05-07 11:50 | 25.31002 | 34.86546 | 34936 ft | 430 kts | 307° |
| 2026-05-07 11:50 | 25.35274 | 34.81891 | 34945 ft | 431 kts | 307° |
| 2026-05-07 11:51 | 25.39552 | 34.77222 | 34956 ft | 432 kts | 307° |
| 2026-05-07 11:51 | 25.43821 | 34.72558 | 34964 ft | 434 kts | 307° |
| 2026-05-07 11:52 | 25.48123 | 34.67853 | 34974 ft | 435 kts | 307° |
| 2026-05-07 11:52 | 25.52437 | 34.63130 | 34975 ft | 436 kts | 307° |
| 2026-05-07 11:53 | 25.56757 | 34.58395 | 34974 ft | 437 kts | 307° |
| 2026-05-07 11:53 | 25.60884 | 34.53546 | 34963 ft | 433 kts | 303° |
| 2026-05-07 11:54 | 25.64758 | 34.48444 | 34968 ft | 432 kts | 302° |
| 2026-05-07 11:54 | 25.68606 | 34.43362 | 34968 ft | 433 kts | 303° |
| 2026-05-07 11:55 | 25.72514 | 34.38259 | 34956 ft | 434 kts | 303° |
| 2026-05-07 11:55 | 25.76442 | 34.33149 | 34950 ft | 434 kts | 303° |
| 2026-05-07 11:56 | 25.80348 | 34.28066 | 34946 ft | 435 kts | 303° |
| 2026-05-07 11:56 | 25.84281 | 34.22938 | 34944 ft | 436 kts | 304° |
| 2026-05-07 11:57 | 25.88224 | 34.17791 | 34953 ft | 436 kts | 304° |
| 2026-05-07 11:57 | 25.92142 | 34.12672 | 34937 ft | 437 kts | 304° |
| 2026-05-07 11:58 | 25.96088 | 34.07507 | 34946 ft | 438 kts | 304° |
| 2026-05-07 11:58 | 26.00033 | 34.02339 | 34952 ft | 437 kts | 304° |
| 2026-05-07 11:59 | 26.03975 | 33.97165 | 34948 ft | 438 kts | 304° |
| 2026-05-07 11:59 | 26.07897 | 33.92011 | 34936 ft | 439 kts | 305° |
| 2026-05-07 12:00 | 26.11855 | 33.86805 | 34940 ft | 439 kts | 305° |
| 2026-05-07 12:00 | 26.15779 | 33.81637 | 34945 ft | 440 kts | 305° |
| 2026-05-07 12:01 | 26.19736 | 33.76422 | 34940 ft | 440 kts | 306° |
| 2026-05-07 12:01 | 26.23679 | 33.71217 | 34945 ft | 441 kts | 306° |
| 2026-05-07 12:02 | 26.27641 | 33.65982 | 34941 ft | 441 kts | 306° |
| 2026-05-07 12:02 | 26.31604 | 33.60739 | 34944 ft | 441 kts | 306° |
| 2026-05-07 12:03 | 26.35540 | 33.55526 | 34937 ft | 441 kts | 306° |
| 2026-05-07 12:03 | 26.39494 | 33.50281 | 34937 ft | 441 kts | 306° |
| 2026-05-07 12:04 | 26.43455 | 33.45023 | 34937 ft | 441 kts | 307° |
| 2026-05-07 12:04 | 26.47387 | 33.39798 | 34938 ft | 442 kts | 307° |
| 2026-05-07 12:05 | 26.51346 | 33.34530 | 34937 ft | 442 kts | 307° |
| 2026-05-07 12:05 | 26.55276 | 33.29292 | 34934 ft | 442 kts | 307° |
| 2026-05-07 12:06 | 26.59230 | 33.24017 | 34932 ft | 442 kts | 307° |
| 2026-05-07 12:06 | 26.63186 | 33.18731 | 34934 ft | 442 kts | 307° |
| 2026-05-07 12:07 | 26.67118 | 33.13472 | 34924 ft | 442 kts | 307° |
| 2026-05-07 12:07 | 26.71070 | 33.08180 | 34929 ft | 442 kts | 307° |
| 2026-05-07 12:08 | 26.74992 | 33.02921 | 34925 ft | 443 kts | 307° |
| 2026-05-07 12:08 | 26.78941 | 32.97622 | 34926 ft | 443 kts | 307° |
| 2026-05-07 12:09 | 26.82888 | 32.92316 | 34924 ft | 443 kts | 308° |
| 2026-05-07 12:09 | 26.86834 | 32.87007 | 34930 ft | 443 kts | 308° |
| 2026-05-07 12:10 | 26.90754 | 32.81726 | 34924 ft | 443 kts | 308° |
| 2026-05-07 12:10 | 26.94694 | 32.76413 | 34927 ft | 443 kts | 308° |
| 2026-05-07 12:11 | 26.98634 | 32.71093 | 34933 ft | 443 kts | 308° |
| 2026-05-07 12:11 | 27.02553 | 32.65793 | 34937 ft | 443 kts | 308° |
| 2026-05-07 12:12 | 27.06491 | 32.60463 | 34937 ft | 443 kts | 308° |
| 2026-05-07 12:12 | 27.10425 | 32.55132 | 34942 ft | 443 kts | 308° |
| 2026-05-07 12:13 | 27.14360 | 32.49792 | 34943 ft | 443 kts | 308° |
| 2026-05-07 12:13 | 27.18268 | 32.44482 | 34944 ft | 443 kts | 308° |
| 2026-05-07 12:14 | 27.22205 | 32.39126 | 34946 ft | 443 kts | 308° |
| 2026-05-07 12:14 | 27.26132 | 32.33777 | 34951 ft | 443 kts | 309° |
| 2026-05-07 12:15 | 27.30031 | 32.28461 | 34956 ft | 443 kts | 308° |
| 2026-05-07 12:15 | 27.33845 | 32.23012 | 34961 ft | 442 kts | 307° |
| 2026-05-07 12:16 | 27.37584 | 32.17505 | 34964 ft | 442 kts | 307° |
| 2026-05-07 12:16 | 27.41308 | 32.12025 | 34975 ft | 442 kts | 307° |
| 2026-05-07 12:17 | 27.45063 | 32.06523 | 34988 ft | 442 kts | 307° |
| 2026-05-07 12:17 | 27.48800 | 32.01054 | 34996 ft | 442 kts | 307° |
| 2026-05-07 12:18 | 27.52551 | 31.95557 | 35008 ft | 441 kts | 307° |
| 2026-05-07 12:18 | 27.56273 | 31.90094 | 35015 ft | 441 kts | 307° |
| 2026-05-07 12:19 | 27.60014 | 31.84599 | 35030 ft | 440 kts | 307° |
| 2026-05-07 12:19 | 27.63728 | 31.79134 | 35039 ft | 440 kts | 307° |
| 2026-05-07 12:20 | 27.67451 | 31.73649 | 35047 ft | 440 kts | 307° |
| 2026-05-07 12:20 | 27.71169 | 31.68165 | 35048 ft | 439 kts | 307° |
| 2026-05-07 12:21 | 27.74857 | 31.62718 | 35062 ft | 439 kts | 307° |
| 2026-05-07 12:21 | 27.78574 | 31.57222 | 35061 ft | 438 kts | 308° |
| 2026-05-07 12:22 | 27.82258 | 31.51768 | 35064 ft | 438 kts | 308° |
| 2026-05-07 12:22 | 27.85951 | 31.46292 | 35070 ft | 437 kts | 308° |
| 2026-05-07 12:23 | 27.89650 | 31.40802 | 35068 ft | 437 kts | 308° |
| 2026-05-07 12:23 | 27.93304 | 31.35370 | 35074 ft | 437 kts | 308° |
| 2026-05-07 12:24 | 27.96988 | 31.29888 | 35075 ft | 436 kts | 308° |
| 2026-05-07 12:24 | 28.00656 | 31.24422 | 35073 ft | 436 kts | 308° |
| 2026-05-07 12:25 | 28.04303 | 31.18981 | 35075 ft | 435 kts | 308° |
| 2026-05-07 12:25 | 28.07945 | 31.13493 | 35073 ft | 435 kts | 307° |
| 2026-05-07 12:26 | 28.11318 | 31.07861 | 35076 ft | 435 kts | 304° |
| 2026-05-07 12:26 | 28.14642 | 31.02120 | 35076 ft | 434 kts | 305° |
| 2026-05-07 12:27 | 28.17971 | 30.96409 | 35079 ft | 433 kts | 305° |
| 2026-05-07 12:27 | 28.21290 | 30.90755 | 35078 ft | 433 kts | 305° |
| 2026-05-07 12:28 | 28.24628 | 30.85077 | 35081 ft | 432 kts | 306° |
| 2026-05-07 12:28 | 28.27967 | 30.79393 | 35078 ft | 432 kts | 306° |
| 2026-05-07 12:29 | 28.31298 | 30.73715 | 35080 ft | 431 kts | 306° |
| 2026-05-07 12:29 | 28.34605 | 30.68068 | 35079 ft | 431 kts | 306° |
| 2026-05-07 12:30 | 28.37922 | 30.62395 | 35080 ft | 430 kts | 306° |
| 2026-05-07 12:30 | 28.41213 | 30.56762 | 35077 ft | 429 kts | 306° |
| 2026-05-07 12:31 | 28.44511 | 30.51108 | 35080 ft | 428 kts | 306° |
| 2026-05-07 12:31 | 28.47782 | 30.45494 | 35078 ft | 427 kts | 306° |
| 2026-05-07 12:32 | 28.51068 | 30.39844 | 35080 ft | 427 kts | 307° |
| 2026-05-07 12:32 | 28.54342 | 30.34209 | 35079 ft | 426 kts | 307° |
| 2026-05-07 12:33 | 28.59218 | 30.25803 | 35081 ft | 424 kts | 307° |
| 2026-05-07 12:33 | 28.62447 | 30.20226 | 35079 ft | 423 kts | 307° |
| 2026-05-07 12:34 | 28.65137 | 30.15574 | 35083 ft | 422 kts | 308° |
| 2026-05-07 12:34 | 28.68365 | 30.09986 | 35077 ft | 421 kts | 308° |
| 2026-05-07 12:35 | 28.72109 | 30.03497 | 35078 ft | 420 kts | 308° |
| 2026-05-07 12:35 | 28.74780 | 29.98860 | 35077 ft | 419 kts | 308° |
| 2026-05-07 12:36 | 28.77958 | 29.93336 | 35078 ft | 418 kts | 308° |
| 2026-05-07 12:36 | 28.81141 | 29.87796 | 35074 ft | 417 kts | 309° |
| 2026-05-07 12:37 | 28.84326 | 29.82247 | 35074 ft | 416 kts | 309° |
| 2026-05-07 12:37 | 28.87472 | 29.76757 | 35072 ft | 415 kts | 309° |
| 2026-05-07 12:38 | 28.90630 | 29.71240 | 35072 ft | 414 kts | 309° |
| 2026-05-07 12:38 | 28.93780 | 29.65729 | 35071 ft | 413 kts | 309° |
| 2026-05-07 12:39 | 28.96890 | 29.60281 | 35071 ft | 412 kts | 309° |
| 2026-05-07 12:39 | 29.00026 | 29.54780 | 35066 ft | 411 kts | 309° |
| 2026-05-07 12:40 | 29.03123 | 29.49340 | 35070 ft | 410 kts | 309° |
| 2026-05-07 12:40 | 29.06226 | 29.43882 | 35073 ft | 409 kts | 309° |
| 2026-05-07 12:41 | 29.09327 | 29.38421 | 35072 ft | 408 kts | 309° |
| 2026-05-07 12:41 | 29.12489 | 29.33108 | 35065 ft | 401 kts | 317° |
| 2026-05-07 12:42 | 29.16759 | 29.29168 | 35071 ft | 390 kts | 330° |
| 2026-05-07 12:42 | 29.21172 | 29.25569 | 35074 ft | 392 kts | 326° |
| 2026-05-07 12:43 | 29.25493 | 29.21756 | 35074 ft | 391 kts | 326° |
| 2026-05-07 12:43 | 29.29808 | 29.17986 | 35073 ft | 391 kts | 326° |
| 2026-05-07 12:44 | 29.34157 | 29.14220 | 35091 ft | 391 kts | 326° |
| 2026-05-07 12:44 | 29.38504 | 29.10458 | 35070 ft | 391 kts | 326° |
| 2026-05-07 12:45 | 29.42817 | 29.06720 | 35072 ft | 390 kts | 326° |
| 2026-05-07 12:45 | 29.47143 | 29.02941 | 35074 ft | 390 kts | 326° |
| 2026-05-07 12:46 | 29.51471 | 28.99151 | 35092 ft | 390 kts | 326° |
| 2026-05-07 12:46 | 29.55763 | 28.95389 | 35091 ft | 390 kts | 326° |
| 2026-05-07 12:47 | 29.60075 | 28.91606 | 35090 ft | 389 kts | 326° |
| 2026-05-07 12:47 | 29.64366 | 28.87838 | 35073 ft | 389 kts | 325° |
| 2026-05-07 12:48 | 29.68683 | 28.84043 | 35074 ft | 389 kts | 325° |
| 2026-05-07 12:48 | 29.72981 | 28.80261 | 35070 ft | 389 kts | 325° |
| 2026-05-07 12:49 | 29.77259 | 28.76493 | 35072 ft | 389 kts | 325° |
| 2026-05-07 12:49 | 29.81556 | 28.72703 | 35089 ft | 388 kts | 325° |
| 2026-05-07 12:50 | 29.85845 | 28.68915 | 35091 ft | 388 kts | 325° |
| 2026-05-07 12:50 | 29.90108 | 28.65148 | 35089 ft | 388 kts | 325° |
| 2026-05-07 12:51 | 29.94391 | 28.61357 | 35074 ft | 387 kts | 325° |
| 2026-05-07 12:51 | 29.98664 | 28.57571 | 35075 ft | 387 kts | 325° |
| 2026-05-07 12:52 | 30.02916 | 28.53801 | 35079 ft | 387 kts | 325° |
| 2026-05-07 12:52 | 30.07192 | 28.50004 | 35076 ft | 386 kts | 325° |
| 2026-05-07 12:53 | 30.11429 | 28.46239 | 35091 ft | 386 kts | 325° |
| 2026-05-07 12:53 | 30.15685 | 28.42451 | 35099 ft | 385 kts | 324° |
| 2026-05-07 12:54 | 30.19944 | 28.38657 | 35103 ft | 385 kts | 324° |
| 2026-05-07 12:54 | 30.24178 | 28.34881 | 35090 ft | 385 kts | 324° |
| 2026-05-07 12:55 | 30.28429 | 28.31086 | 35092 ft | 385 kts | 324° |
| 2026-05-07 12:55 | 30.32641 | 28.27321 | 35108 ft | 384 kts | 324° |
| 2026-05-07 12:56 | 30.36884 | 28.23524 | 35113 ft | 384 kts | 324° |
| 2026-05-07 12:56 | 30.41091 | 28.19755 | 35112 ft | 384 kts | 324° |
| 2026-05-07 12:57 | 30.45319 | 28.15963 | 35107 ft | 383 kts | 324° |
| 2026-05-07 12:57 | 30.49508 | 28.12202 | 35120 ft | 383 kts | 324° |
| 2026-05-07 12:58 | 30.53722 | 28.08414 | 35110 ft | 383 kts | 324° |
| 2026-05-07 12:58 | 30.57935 | 28.04623 | 35111 ft | 383 kts | 324° |
| 2026-05-07 12:59 | 30.62149 | 28.00827 | 35137 ft | 382 kts | 324° |
| 2026-05-07 12:59 | 30.66328 | 27.97058 | 35122 ft | 382 kts | 324° |
| 2026-05-07 13:00 | 30.70538 | 27.93256 | 35127 ft | 382 kts | 324° |
| 2026-05-07 13:00 | 30.74744 | 27.89454 | 35132 ft | 382 kts | 323° |
| 2026-05-07 13:01 | 30.78915 | 27.85679 | 35138 ft | 382 kts | 323° |
| 2026-05-07 13:01 | 30.83124 | 27.81866 | 35152 ft | 382 kts | 323° |
| 2026-05-07 13:02 | 30.87290 | 27.78087 | 35153 ft | 381 kts | 323° |
| 2026-05-07 13:02 | 30.91489 | 27.74274 | 35149 ft | 381 kts | 323° |
| 2026-05-07 13:03 | 30.95656 | 27.70485 | 35149 ft | 381 kts | 323° |
| 2026-05-07 13:03 | 30.99839 | 27.66677 | 35170 ft | 381 kts | 323° |
| 2026-05-07 13:04 | 31.04034 | 27.62854 | 35167 ft | 381 kts | 323° |
| 2026-05-07 13:04 | 31.08201 | 27.59052 | 35170 ft | 381 kts | 323° |
| 2026-05-07 13:05 | 31.12377 | 27.55225 | 35176 ft | 381 kts | 321° |
| 2026-05-07 13:05 | 31.15757 | 27.50462 | 35184 ft | 388 kts | 305° |
| 2026-05-07 13:06 | 31.18618 | 27.45148 | 35186 ft | 385 kts | 308° |
| 2026-05-07 13:06 | 31.21654 | 27.40024 | 35190 ft | 385 kts | 308° |
| 2026-05-07 13:07 | 31.24686 | 27.34852 | 35191 ft | 386 kts | 308° |
| 2026-05-07 13:07 | 31.27699 | 27.29651 | 35173 ft | 386 kts | 308° |
| 2026-05-07 13:08 | 31.30708 | 27.24446 | 35190 ft | 385 kts | 308° |
| 2026-05-07 13:08 | 31.32424 | 27.22062 | 35195 ft | 381 kts | 319° |
| 2026-05-07 13:08 | 31.34523 | 27.20185 | 35194 ft | 380 kts | 327° |
| 2026-05-07 13:09 | 31.39038 | 27.17013 | 35193 ft | 381 kts | 327° |
| 2026-05-07 13:09 | 31.43509 | 27.13667 | 35189 ft | 381 kts | 326° |
| 2026-05-07 13:10 | 31.47968 | 27.10292 | 35175 ft | 381 kts | 326° |
| 2026-05-07 13:10 | 31.52427 | 27.06932 | 35189 ft | 381 kts | 326° |
| 2026-05-07 13:11 | 31.54615 | 27.05287 | 35499 ft | 372 kts | 326° |
| 2026-05-07 13:11 | 31.56754 | 27.03680 | 36119 ft | 357 kts | 327° |
| 2026-05-07 13:11 | 31.58807 | 27.02138 | 36705 ft | 343 kts | 327° |
| 2026-05-07 13:11 | 31.60772 | 27.00662 | 37365 ft | 326 kts | 327° |
| 2026-05-07 13:12 | 31.62638 | 26.99260 | 38012 ft | 311 kts | 327° |
| 2026-05-07 13:12 | 31.64429 | 26.97913 | 38166 ft | 309 kts | 327° |
| 2026-05-07 13:12 | 31.68058 | 26.95181 | 38171 ft | 308 kts | 327° |
| 2026-05-07 13:13 | 31.71642 | 26.92481 | 38170 ft | 308 kts | 327° |
| 2026-05-07 13:13 | 31.75251 | 26.89760 | 38148 ft | 307 kts | 327° |
| 2026-05-07 13:14 | 31.78841 | 26.87051 | 38161 ft | 306 kts | 327° |
| 2026-05-07 13:14 | 31.82409 | 26.84356 | 38148 ft | 305 kts | 327° |
| 2026-05-07 13:15 | 31.85987 | 26.81651 | 38151 ft | 305 kts | 327° |
| 2026-05-07 13:15 | 31.89554 | 26.78951 | 38147 ft | 304 kts | 327° |
| 2026-05-07 13:16 | 31.93091 | 26.76273 | 38027 ft | 307 kts | 327° |
| 2026-05-07 13:16 | 31.94915 | 26.74890 | 37790 ft | 313 kts | 326° |
| 2026-05-07 13:16 | 31.96761 | 26.73489 | 37577 ft | 319 kts | 326° |
| 2026-05-07 13:17 | 32.00504 | 26.70649 | 37535 ft | 320 kts | 326° |
| 2026-05-07 13:17 | 32.04222 | 26.67825 | 37546 ft | 320 kts | 326° |
| 2026-05-07 13:18 | 32.07974 | 26.64972 | 37553 ft | 321 kts | 326° |
| 2026-05-07 13:18 | 32.11743 | 26.62104 | 37552 ft | 322 kts | 326° |
| 2026-05-07 13:19 | 32.15494 | 26.59245 | 37553 ft | 323 kts | 326° |
| 2026-05-07 13:19 | 32.19284 | 26.56355 | 37554 ft | 324 kts | 326° |
| 2026-05-07 13:20 | 32.23061 | 26.53472 | 37550 ft | 325 kts | 326° |
| 2026-05-07 13:20 | 32.26873 | 26.50559 | 37547 ft | 326 kts | 326° |
| 2026-05-07 13:21 | 32.30674 | 26.47651 | 37549 ft | 327 kts | 326° |
| 2026-05-07 13:21 | 32.34511 | 26.44712 | 37555 ft | 328 kts | 326° |
| 2026-05-07 13:22 | 32.37711 | 26.42260 | 37556 ft | 329 kts | 326° |
| 2026-05-07 13:22 | 32.41564 | 26.39304 | 37558 ft | 331 kts | 326° |
| 2026-05-07 13:23 | 32.45416 | 26.36346 | 37555 ft | 332 kts | 326° |
| 2026-05-07 13:23 | 32.49306 | 26.33355 | 37552 ft | 333 kts | 326° |
| 2026-05-07 13:24 | 32.53190 | 26.30366 | 37552 ft | 334 kts | 326° |
| 2026-05-07 13:24 | 32.57102 | 26.27352 | 37553 ft | 336 kts | 326° |
| 2026-05-07 13:25 | 32.61028 | 26.24324 | 37553 ft | 337 kts | 326° |
| 2026-05-07 13:25 | 32.64965 | 26.21285 | 37556 ft | 338 kts | 326° |
| 2026-05-07 13:26 | 32.68892 | 26.18250 | 37553 ft | 339 kts | 325° |
| 2026-05-07 13:26 | 32.72841 | 26.15194 | 37557 ft | 340 kts | 325° |
| 2026-05-07 13:27 | 32.76821 | 26.12112 | 37558 ft | 341 kts | 325° |
| 2026-05-07 13:27 | 32.80817 | 26.09013 | 37557 ft | 343 kts | 325° |
| 2026-05-07 13:28 | 32.84792 | 26.05928 | 37556 ft | 344 kts | 325° |
| 2026-05-07 13:28 | 32.88813 | 26.02803 | 37556 ft | 345 kts | 325° |
| 2026-05-07 13:29 | 32.92840 | 25.99671 | 37556 ft | 346 kts | 325° |
| 2026-05-07 13:29 | 32.96852 | 25.96546 | 37560 ft | 347 kts | 325° |
| 2026-05-07 13:30 | 33.00905 | 25.93386 | 37559 ft | 348 kts | 325° |
| 2026-05-07 13:30 | 33.04964 | 25.90219 | 37557 ft | 349 kts | 325° |
| 2026-05-07 13:31 | 33.09013 | 25.87055 | 37556 ft | 350 kts | 325° |
| 2026-05-07 13:31 | 33.13091 | 25.83865 | 37555 ft | 351 kts | 325° |
| 2026-05-07 13:32 | 33.17181 | 25.80661 | 37557 ft | 352 kts | 325° |
| 2026-05-07 13:32 | 33.21278 | 25.77449 | 37557 ft | 352 kts | 324° |
| 2026-05-07 13:33 | 33.25370 | 25.74237 | 37563 ft | 353 kts | 324° |
| 2026-05-07 13:33 | 33.29465 | 25.71019 | 37562 ft | 354 kts | 324° |